Time;durP1;ratioP1;P1;durP2;ratioP2;P2;SDS_P1;SDS_P2;PMS_P1;PMS_P2;Temp;Humidity;BMP_temperature;BMP_pressure;BME280_temperature;BME280_humidity;BME280_pressure;Samples;Min_cycle;Max_cycle;Signal;HPM_P1;HPM_P2
2022/08/21 00:02:26;;;;;;;12.80;7.20;;;;;;;19.09;83.18;99026.52;430807;1271;142208;-61
2022/08/21 00:12:32;;;;;;;8.30;6.70;;;;;;;18.96;83.23;99009.08;431443;1271;142981;-60
2022/08/21 00:22:40;;;;;;;5.40;4.70;;;;;;;18.86;83.45;99002.55;431524;1271;142066;-61
2022/08/21 00:32:46;;;;;;;5.90;3.20;;;;;;;18.83;82.99;99003.70;431052;1272;142537;-59
2022/08/21 00:42:52;;;;;;;5.30;3.50;;;;;;;18.90;81.86;98994.41;431445;1270;140448;-60
2022/08/21 00:53:00;;;;;;;5.40;3.70;;;;;;;18.99;82.17;98991.42;430812;1271;141154;-59
2022/08/21 01:03:07;;;;;;;;;;;;;;;19.28;82.30;98989.64;432227;1270;141154;-59
2022/08/21 01:13:18;;;;;;;8.60;5.00;;;;;;;19.40;82.02;98986.81;432052;1270;128273;-60
2022/08/21 01:23:24;;;;;;;8.20;5.10;;;;;;;19.37;81.82;98980.17;431327;1271;142947;-60
2022/08/21 01:33:31;;;;;;;6.60;4.80;;;;;;;19.22;82.24;98978.64;431565;1270;142634;-58
2022/08/21 01:43:37;;;;;;;6.80;6.10;;;;;;;19.18;82.91;98974.05;431664;1271;142499;-60
2022/08/21 01:53:44;;;;;;;7.10;6.40;;;;;;;19.19;83.19;98957.45;430604;1271;142759;-62
2022/08/21 02:03:50;;;;;;;7.60;6.50;;;;;;;19.21;83.63;98946.41;431695;1271;144178;-60
2022/08/21 02:13:56;;;;;;;9.60;7.00;;;;;;;19.23;84.00;98944.23;430916;1270;142333;-61
2022/08/21 02:24:02;;;;;;;10.70;7.70;;;;;;;19.26;84.02;98934.48;431467;1270;145485;-62
2022/08/21 02:34:08;;;;;;;10.60;7.00;;;;;;;19.25;84.45;98925.25;432027;1271;142466;-61
2022/08/21 02:44:14;;;;;;;10.10;8.80;;;;;;;19.22;84.52;98921.70;430718;1271;145101;-61
2022/08/21 02:54:21;;;;;;;9.40;8.20;;;;;;;19.21;84.76;98913.07;431314;1271;141538;-62
2022/08/21 03:04:27;;;;;;;9.40;8.30;;;;;;;19.22;84.67;98906.98;431794;1271;142489;-62
2022/08/21 03:14:33;;;;;;;10.60;8.70;;;;;;;19.22;84.71;98909.32;430103;1271;143625;-61
2022/08/21 03:24:39;;;;;;;8.70;7.60;;;;;;;19.21;84.57;98915.08;431714;1271;140675;-60
2022/08/21 03:34:49;;;;;;;12.60;8.60;;;;;;;19.26;83.86;98916.43;430111;1271;141788;-61
2022/08/21 03:44:55;;;;;;;8.60;7.20;;;;;;;19.34;83.26;98919.46;431209;1271;142487;-60
2022/08/21 03:55:01;;;;;;;10.60;7.50;;;;;;;19.40;82.75;98912.45;430589;1271;146750;-61
2022/08/21 04:05:09;;;;;;;7.40;6.70;;;;;;;19.45;82.32;98915.19;430583;1271;142527;-60
2022/08/21 04:15:15;;;;;;;6.80;6.10;;;;;;;19.50;81.88;98913.02;431057;1271;142655;-60
2022/08/21 04:25:23;;;;;;;6.90;6.30;;;;;;;19.60;81.26;98910.53;431464;1271;145062;-62
2022/08/21 04:35:30;;;;;;;8.20;5.60;;;;;;;19.74;80.66;98927.02;430033;1271;142124;-62
2022/08/21 04:45:37;;;;;;;5.40;4.90;;;;;;;20.04;79.79;98935.13;431437;1271;194823;-61
2022/08/21 04:55:45;;;;;;;6.00;5.50;;;;;;;20.61;79.03;98947.48;431049;1271;183118;-61
2022/08/21 05:05:51;;;;;;;5.90;4.80;;;;;;;21.26;77.91;98964.24;431654;1271;141842;-60
2022/08/21 05:15:58;;;;;;;8.50;5.60;;;;;;;21.71;77.58;98972.29;431477;1271;147596;-59
2022/08/21 05:26:05;;;;;;;8.00;5.70;;;;;;;23.54;76.89;98979.95;430940;1271;142269;-60
2022/08/21 05:36:11;;;;;;;7.20;6.50;;;;;;;27.76;70.39;98980.23;431252;1270;144958;-60
2022/08/21 05:46:17;;;;;;;11.80;6.60;;;;;;;29.54;63.91;98978.60;431182;1271;142357;-59
2022/08/21 05:56:23;;;;;;;7.90;4.60;;;;;;;28.20;62.38;98974.91;430172;1271;144035;-62
2022/08/21 06:06:30;;;;;;;8.00;4.70;;;;;;;28.19;61.98;98980.46;430694;1271;145824;-59
2022/08/21 06:16:36;;;;;;;5.50;5.10;;;;;;;27.07;61.42;98986.70;430670;1271;146896;-60
2022/08/21 06:26:41;;;;;;;4.70;4.10;;;;;;;25.80;62.58;98989.08;432710;1271;203175;-60
2022/08/21 06:36:47;;;;;;;7.80;5.50;;;;;;;25.24;63.49;98986.45;429800;1271;1266242;-58
2022/08/21 06:46:53;;;;;;;6.30;4.90;;;;;;;24.50;64.80;98985.15;430351;1271;145484;-57
2022/08/21 06:56:59;;;;;;;10.10;5.20;;;;;;;24.73;65.47;98985.13;430898;1271;145601;-60
2022/08/21 07:07:06;;;;;;;6.00;4.80;;;;;;;26.33;64.55;98984.05;431007;1271;142615;-62
2022/08/21 07:17:11;;;;;;;5.80;5.00;;;;;;;27.63;61.16;98982.86;430302;1272;142772;-61
2022/08/21 07:27:18;;;;;;;5.70;5.10;;;;;;;28.89;58.93;98985.58;431622;1271;145824;-62
2022/08/21 07:37:24;;;;;;;5.30;3.60;;;;;;;29.65;56.40;98983.91;431059;1271;143739;-60
2022/08/21 07:47:30;;;;;;;4.30;3.90;;;;;;;29.52;54.21;98982.14;430323;1271;143201;-60
2022/08/21 07:57:48;;;;;;;5.00;3.40;;;;;;;30.28;52.96;98967.41;430774;1271;141745;-61
2022/08/21 08:07:55;;;;;;;2.90;2.70;;;;;;;31.32;50.60;98960.19;431194;1271;141774;-60
2022/08/21 08:18:00;;;;;;;3.80;3.20;;;;;;;30.93;49.38;98958.42;430583;1271;141946;-61
2022/08/21 08:28:08;;;;;;;3.10;2.90;;;;;;;30.59;49.19;98958.23;430605;1271;141003;-60
2022/08/21 08:38:24;;;;;;;3.30;3.10;;;;;;;30.16;49.18;98957.11;430204;1271;141756;-61
2022/08/21 08:48:47;;;;;;;4.20;3.20;;;;;;;29.42;48.94;98961.62;430598;1271;142509;-61
2022/08/21 08:59:01;;;;;;;4.00;2.90;;;;;;;28.81;49.73;98965.33;430190;1271;142921;-60
2022/08/21 09:09:23;;;;;;;3.20;2.90;;;;;;;28.89;50.37;98961.83;431774;1271;142010;-61
2022/08/21 09:19:55;;;;;;;3.40;3.00;;;;;;;29.21;50.80;98959.36;430685;1271;142986;-59
2022/08/21 09:30:01;;;;;;;3.70;3.40;;;;;;;29.97;50.51;98961.45;431122;1271;143407;-61
2022/08/21 09:40:24;;;;;;;7.60;3.30;;;;;;;30.76;48.85;98963.73;430940;1271;141970;-61
2022/08/21 09:50:30;;;;;;;3.60;3.30;;;;;;;31.47;47.76;98953.48;430481;1271;141332;-60
2022/08/21 10:00:37;;;;;;;4.60;3.00;;;;;;;31.80;46.80;98947.21;435777;1271;141315;-61
2022/08/21 10:10:43;;;;;;;4.10;2.90;;;;;;;31.57;45.50;98940.42;430666;1271;141966;-63
2022/08/21 10:20:56;;;;;;;3.70;3.20;;;;;;;31.45;45.13;98938.43;432570;1271;141339;-61
2022/08/21 10:31:10;;;;;;;4.90;3.80;;;;;;;31.58;44.95;98932.63;432550;1271;143674;-60
2022/08/21 10:41:38;;;;;;;6.90;3.90;;;;;;;30.48;45.86;98927.80;445630;1271;142108;-61
2022/08/21 10:51:50;;;;;;;3.50;3.20;;;;;;;30.28;46.53;98927.27;439081;1271;142491;-60
2022/08/21 11:02:03;;;;;;;4.30;2.60;;;;;;;30.32;45.92;98924.80;429847;1271;144036;-62
2022/08/21 11:12:20;;;;;;;3.70;3.40;;;;;;;30.38;45.14;98925.80;431128;1271;141437;-60
2022/08/21 11:22:38;;;;;;;3.50;3.30;;;;;;;30.02;46.54;98920.41;430298;1271;141966;-61
2022/08/21 11:33:07;;;;;;;4.30;3.00;;;;;;;29.92;47.67;98916.17;447121;1271;142063;-61
2022/08/21 11:43:20;;;;;;;7.30;5.20;;;;;;;29.60;46.77;98921.58;445270;1271;142353;-60
2022/08/21 11:53:33;;;;;;;5.00;4.60;;;;;;;28.90;48.73;98923.95;430609;1271;142580;-60
2022/08/21 12:03:43;;;;;;;7.00;4.70;;;;;;;28.38;50.02;98927.38;431105;1271;144928;-60
2022/08/21 12:14:00;;;;;;;9.20;6.00;;;;;;;27.70;51.28;98936.70;430157;1271;143557;-59
2022/08/21 12:24:21;;;;;;;9.00;5.00;;;;;;;27.66;51.66;98929.61;431142;1271;145586;-59
2022/08/21 12:34:38;;;;;;;6.80;3.50;;;;;;;27.65;51.48;98927.53;430587;1271;143136;-61
2022/08/21 12:44:50;;;;;;;3.70;3.40;;;;;;;27.39;51.88;98918.55;430491;1272;141025;-60
2022/08/21 12:54:56;;;;;;;3.50;3.20;;;;;;;27.36;51.73;98919.49;430364;1272;142465;-60
2022/08/21 13:05:05;;;;;;;4.80;3.80;;;;;;;27.56;51.30;98916.40;429625;1272;142750;-60
2022/08/21 13:15:13;;;;;;;8.80;4.10;;;;;;;27.45;51.86;98905.57;430556;1271;142292;-61
2022/08/21 13:25:25;;;;;;;2.90;2.70;;;;;;;27.49;51.85;98903.98;431713;1272;141347;-61
2022/08/21 13:35:36;;;;;;;5.30;3.50;;;;;;;27.57;51.82;98910.17;430755;1273;145606;-60
2022/08/21 13:45:48;;;;;;;3.60;3.30;;;;;;;27.92;51.12;98910.84;431037;1274;141763;-61
2022/08/21 13:55:54;;;;;;;4.20;3.40;;;;;;;27.91;51.02;98905.41;431543;1272;141879;-61
2022/08/21 14:06:15;;;;;;;3.40;3.10;;;;;;;27.97;51.20;98910.06;431732;1273;146705;-61
2022/08/21 14:16:25;;;;;;;5.30;3.60;;;;;;;28.20;50.84;98909.05;432553;1271;141179;-61
2022/08/21 14:26:31;;;;;;;4.50;4.10;;;;;;;27.94;50.79;98915.92;431443;1271;141554;-61
2022/08/21 14:36:37;;;;;;;5.00;3.50;;;;;;;27.62;51.76;98914.71;432591;1271;144957;-62
2022/08/21 14:46:43;;;;;;;3.70;3.30;;;;;;;27.32;52.17;98918.58;431597;1271;145329;-62
2022/08/21 14:57:04;;;;;;;4.00;3.50;;;;;;;27.12;52.68;98919.97;432138;1271;141929;-62
2022/08/21 15:07:10;;;;;;;5.10;3.10;;;;;;;27.08;52.99;98918.52;435025;1271;142730;-59
2022/08/21 15:17:16;;;;;;;4.90;3.30;;;;;;;27.14;53.16;98921.17;433530;1271;140474;-60
2022/08/21 15:27:22;;;;;;;3.40;3.10;;;;;;;27.12;53.17;98914.13;439242;1272;141990;-59
2022/08/21 15:37:28;;;;;;;11.00;8.90;;;;;;;27.08;54.43;98922.73;433007;1273;141168;-58
2022/08/21 15:47:38;;;;;;;11.10;9.90;;;;;;;26.55;58.10;98922.73;432400;1272;141785;-60
2022/08/21 15:57:49;;;;;;;12.50;10.10;;;;;;;25.74;60.53;98934.74;432174;1273;142942;-60
2022/08/21 16:08:03;;;;;;;15.10;11.70;;;;;;;25.08;62.25;98940.48;431527;1273;146567;-60
2022/08/21 16:18:10;;;;;;;15.10;12.40;;;;;;;24.45;64.05;98957.35;431780;1272;144153;-59
2022/08/21 16:28:19;;;;;;;15.20;13.70;;;;;;;23.86;65.52;98961.45;432618;1272;142625;-60
2022/08/21 16:38:26;;;;;;;16.00;14.40;;;;;;;23.32;66.78;98974.83;432245;1270;143160;-60
2022/08/21 16:48:32;;;;;;;17.50;15.10;;;;;;;22.77;68.07;98994.88;432687;1272;144562;-60
2022/08/21 16:58:40;;;;;;;20.90;17.90;;;;;;;22.27;70.38;99003.42;432662;1272;143147;-60
2022/08/21 17:08:47;;;;;;;20.80;17.80;;;;;;;21.81;72.41;99005.04;432760;1272;142267;-60
2022/08/21 17:18:57;;;;;;;21.10;18.40;;;;;;;21.42;73.91;99018.48;432932;1272;141948;-59
2022/08/21 17:29:08;;;;;;;23.80;20.30;;;;;;;21.19;75.37;99023.78;431764;1272;141592;-61
2022/08/21 17:39:15;;;;;;;23.50;21.10;;;;;;;20.84;76.90;99032.52;431717;1272;142185;-60
2022/08/21 17:49:31;;;;;;;22.70;20.30;;;;;;;20.56;78.85;99022.11;431478;1272;143092;-59
2022/08/21 17:59:37;;;;;;;21.90;19.70;;;;;;;20.48;79.97;99032.96;430554;1272;143018;-59
2022/08/21 18:09:43;;;;;;;19.80;17.70;;;;;;;20.49;80.72;99037.52;431044;1272;144481;-60
2022/08/21 18:19:49;;;;;;;19.50;17.20;;;;;;;20.53;81.24;99026.58;430912;1271;142991;-60
2022/08/21 18:29:59;;;;;;;17.70;16.00;;;;;;;20.48;81.63;99031.54;431352;1270;146633;-60
2022/08/21 18:40:07;;;;;;;16.10;14.00;;;;;;;20.48;82.10;99034.11;430944;1271;1541678;-60
2022/08/21 18:50:16;;;;;;;15.00;13.70;;;;;;;20.45;82.40;99039.70;431218;1271;147851;-60
2022/08/21 19:00:25;;;;;;;13.00;11.70;;;;;;;20.37;82.70;99030.91;430927;1271;146152;-61
2022/08/21 19:10:32;;;;;;;10.20;9.20;;;;;;;20.18;82.89;99035.85;431304;1271;143423;-63
2022/08/21 19:20:40;;;;;;;10.90;9.80;;;;;;;20.06;82.95;99049.67;430715;1271;142782;-62
2022/08/21 19:30:55;;;;;;;9.80;9.00;;;;;;;19.94;83.59;99048.48;430834;1271;142824;-60
2022/08/21 19:41:02;;;;;;;12.10;11.00;;;;;;;19.89;83.83;99044.08;430922;1271;141953;-58
2022/08/21 19:51:08;;;;;;;11.50;10.40;;;;;;;19.84;84.21;99045.62;431056;1271;143144;-60
2022/08/21 20:01:18;;;;;;;13.00;11.60;;;;;;;19.84;84.64;99049.92;431442;1270;141201;-59
2022/08/21 20:11:29;;;;;;;11.40;10.50;;;;;;;19.83;84.87;99048.20;431014;1271;143401;-58
2022/08/21 20:21:37;;;;;;;12.20;11.00;;;;;;;19.84;85.17;99050.42;431489;1271;142058;-59
2022/08/21 20:32:06;;;;;;;10.90;10.00;;;;;;;19.84;85.76;99044.92;431349;1271;145755;-59
2022/08/21 20:42:16;;;;;;;11.50;10.50;;;;;;;19.80;85.73;99041.81;431400;1271;143452;-61
2022/08/21 20:52:25;;;;;;;11.70;10.70;;;;;;;19.76;86.10;99039.55;430990;1271;146360;-62
2022/08/21 21:02:42;;;;;;;12.80;11.50;;;;;;;19.75;86.16;99041.17;431048;1270;142747;-60
2022/08/21 21:12:53;;;;;;;14.90;13.70;;;;;;;19.73;86.44;99043.17;432420;1271;142109;-61
2022/08/21 21:23:09;;;;;;;17.10;15.60;;;;;;;19.73;86.46;99043.80;430751;1271;143776;-62
2022/08/21 21:33:18;;;;;;;17.70;16.20;;;;;;;19.72;86.77;99041.39;431032;1271;143044;-60
2022/08/21 21:43:39;;;;;;;16.20;14.80;;;;;;;19.69;87.10;99046.80;431258;1271;144350;-61
2022/08/21 21:53:53;;;;;;;14.10;12.80;;;;;;;19.61;87.38;99047.26;431492;1271;142378;-60
2022/08/21 22:04:04;;;;;;;12.40;11.30;;;;;;;19.54;87.79;99053.39;430938;1271;143272;-60
2022/08/21 22:14:13;;;;;;;10.30;9.40;;;;;;;19.41;88.05;99053.35;430374;1271;143867;-60
2022/08/21 22:24:26;;;;;;;11.90;10.80;;;;;;;19.27;88.02;99060.36;431093;1272;142614;-60
2022/08/21 22:34:32;;;;;;;9.80;9.00;;;;;;;19.14;88.52;99055.25;431168;1271;142657;-61
2022/08/21 22:44:50;;;;;;;7.90;7.20;;;;;;;19.04;88.38;99061.31;430200;1271;145316;-59
2022/08/21 22:55:02;;;;;;;8.50;7.70;;;;;;;18.89;88.80;99056.86;431340;1271;143429;-61
2022/08/21 23:05:20;;;;;;;9.00;7.70;;;;;;;18.79;89.28;99044.39;430009;1271;145617;-60
2022/08/21 23:15:31;;;;;;;10.10;9.10;;;;;;;18.70;89.74;99047.09;431557;1271;142776;-60
2022/08/21 23:26:02;;;;;;;10.50;9.40;;;;;;;18.66;90.11;99044.39;430524;1272;142361;-60
2022/08/21 23:47:01;;;;;;;10.90;9.90;;;;;;;18.59;91.24;99039.73;430661;1271;142368;-57
2022/08/21 23:57:16;;;;;;;11.40;10.10;;;;;;;18.56;91.49;99043.86;431230;1271;142582;-61
